Time;durP1;ratioP1;P1;durP2;ratioP2;P2;SDS_P1;SDS_P2;PMS_P1;PMS_P2;Temp;Humidity;BMP_temperature;BMP_pressure;BME280_temperature;BME280_humidity;BME280_pressure;Samples;Min_cycle;Max_cycle;Signal;HPM_P1;HPM_P2
2021/12/03 00:02:05;;;;;;;7.20;2.17;;;1.40;99.90;;;;;;5067927;28;20044;-60
2021/12/03 00:04:42;;;;;;;9.57;2.45;;;1.40;99.90;;;;;;5066546;28;20048;-61
2021/12/03 00:07:12;;;;;;;5.78;2.08;;;1.40;99.90;;;;;;5063305;28;20500;-60
2021/12/03 00:09:52;;;;;;;7.30;2.63;;;1.40;99.90;;;;;;5028185;28;20050;-61
2021/12/03 00:12:21;;;;;;;7.78;3.03;;;1.30;99.90;;;;;;5026563;28;20698;-61
2021/12/03 00:14:49;;;;;;;7.65;2.25;;;1.30;99.90;;;;;;5046891;28;20049;-62
2021/12/03 00:17:17;;;;;;;5.60;2.20;;;1.30;99.90;;;;;;5047193;28;20203;-61
2021/12/03 00:19:44;;;;;;;6.75;2.65;;;1.30;99.90;;;;;;5046587;28;20056;-61
2021/12/03 00:22:12;;;;;;;22.60;3.00;;;1.30;99.90;;;;;;5044546;28;20060;-60
2021/12/03 00:24:49;;;;;;;3.08;2.10;;;1.30;99.90;;;;;;5045404;28;20056;-60
2021/12/03 00:27:20;;;;;;;9.02;2.75;;;1.40;99.90;;;;;;5047340;28;20048;-60
2021/12/03 00:29:48;;;;;;;4.50;2.03;;;1.40;99.90;;;;;;5046978;28;20508;-60
2021/12/03 00:32:16;;;;;;;8.05;2.47;;;1.40;99.90;;;;;;5051912;28;20231;-61
2021/12/03 00:34:43;;;;;;;6.97;2.30;;;1.40;99.90;;;;;;5051583;28;20400;-61
2021/12/03 00:37:11;;;;;;;5.72;1.80;;;1.40;99.90;;;;;;5033735;28;20297;-60
2021/12/03 00:39:39;;;;;;;5.88;1.65;;;1.40;99.90;;;;;;5030077;28;20053;-60
2021/12/03 00:42:14;;;;;;;3.47;1.80;;;1.40;99.90;;;;;;5041112;28;20037;-60
2021/12/03 00:44:45;;;;;;;6.20;2.10;;;1.50;99.90;;;;;;5049910;28;20056;-60
2021/12/03 00:47:14;;;;;;;6.78;2.08;;;1.50;99.90;;;;;;5051164;28;20052;-59
2021/12/03 00:49:42;;;;;;;3.38;2.17;;;1.50;99.90;;;;;;5051277;28;20411;-60
2021/12/03 00:52:17;;;;;;;3.83;1.60;;;1.50;99.90;;;;;;5050643;28;20045;-60
2021/12/03 00:54:45;;;;;;;7.25;1.67;;;1.50;99.90;;;;;;5049234;28;20385;-60
2021/12/03 00:57:13;;;;;;;4.75;1.63;;;1.60;99.90;;;;;;5033328;28;20056;-59
2021/12/03 00:59:41;;;;;;;4.70;2.00;;;1.60;99.90;;;;;;5051116;28;20049;-61
2021/12/03 01:02:08;;;;;;;4.07;1.80;;;1.60;99.90;;;;;;5028155;28;20497;-61
2021/12/03 01:04:37;;;;;;;6.15;2.03;;;1.60;99.90;;;;;;5044941;28;20052;-61
2021/12/03 01:07:05;;;;;;;3.50;1.60;;;1.70;99.90;;;;;;5048622;28;20044;-60
2021/12/03 01:09:33;;;;;;;6.88;2.15;;;1.70;99.90;;;;;;5066571;28;20070;-61
2021/12/03 01:12:08;;;;;;;5.35;1.63;;;1.70;99.90;;;;;;5071001;28;20044;-61
2021/12/03 01:14:45;;;;;;;2.05;1.25;;;1.70;99.90;;;;;;5070558;28;20047;-60
2021/12/03 01:17:12;;;;;;;3.47;1.50;;;1.70;99.90;;;;;;5070468;28;20050;-60
2021/12/03 01:19:43;;;;;;;3.25;1.60;;;1.80;99.90;;;;;;5070438;28;20044;-60
2021/12/03 01:22:11;;;;;;;6.22;1.90;;;1.80;99.90;;;;;;5070674;28;20500;-60
2021/12/03 01:24:39;;;;;;;2.88;1.50;;;1.80;99.90;;;;;;5068885;28;20057;-60
2021/12/03 01:27:07;;;;;;;3.25;1.52;;;1.80;99.90;;;;;;5069194;28;20436;-60
2021/12/03 01:29:35;;;;;;;5.03;1.27;;;1.80;99.90;;;;;;5070568;28;20056;-60
2021/12/03 01:32:03;;;;;;;3.55;1.50;;;1.80;99.90;;;;;;5070397;28;20196;-60
2021/12/03 01:34:34;;;;;;;4.18;1.42;;;1.80;99.90;;;;;;5070114;28;20048;-61
2021/12/03 01:37:04;;;;;;;4.93;1.58;;;1.80;99.90;;;;;;5070568;28;20032;-60
2021/12/03 01:39:35;;;;;;;7.28;1.50;;;1.80;99.90;;;;;;5053310;28;20052;-60
2021/12/03 01:42:04;;;;;;;4.28;1.27;;;1.90;99.90;;;;;;5049964;28;20508;-60
2021/12/03 01:44:32;;;;;;;2.05;1.30;;;1.80;99.90;;;;;;5066242;28;20047;-60
2021/12/03 01:50:00;;;;;;;2.08;1.10;;;1.90;99.90;;;;;;5070030;28;20048;-61
2021/12/03 01:52:28;;;;;;;4.88;1.35;;;1.90;99.90;;;;;;5068910;28;20045;-60
2021/12/03 01:55:01;;;;;;;3.20;1.48;;;1.90;99.90;;;;;;5067498;28;20058;-60
2021/12/03 01:57:30;;;;;;;4.63;1.40;;;1.90;99.90;;;;;;5069778;28;20044;-61
2021/12/03 02:00:01;;;;;;;1.73;1.33;;;1.90;99.90;;;;;;5070075;28;20044;-61
2021/12/03 02:02:39;;;;;;;1.50;1.17;;;1.90;99.90;;;;;;5069412;28;20067;-61
2021/12/03 02:05:08;;;;;;;2.58;1.52;;;1.90;99.90;;;;;;5069610;28;20047;-61
2021/12/03 02:07:36;;;;;;;2.88;1.67;;;1.90;99.90;;;;;;5069610;28;20059;-60
2021/12/03 02:10:05;;;;;;;2.13;1.63;;;1.90;99.90;;;;;;5050853;28;20056;-61
2021/12/03 02:12:33;;;;;;;2.45;1.08;;;1.90;99.90;;;;;;5049710;28;20072;-60
2021/12/03 02:15:01;;;;;;;1.75;1.38;;;1.90;99.90;;;;;;5068053;28;20055;-63
2021/12/03 02:17:29;;;;;;;1.75;1.55;;;1.90;99.90;;;;;;5068060;28;20052;-60
2021/12/03 02:19:57;;;;;;;2.40;1.42;;;1.90;99.90;;;;;;5069530;28;20048;-61
2021/12/03 02:22:28;;;;;;;5.00;1.33;;;1.90;99.90;;;;;;5068543;28;20048;-60
2021/12/03 02:24:56;;;;;;;1.75;1.42;;;1.90;99.90;;;;;;5050770;28;20826;-60
2021/12/03 02:27:27;;;;;;;1.50;1.40;;;1.90;99.90;;;;;;5056949;28;20051;-60
2021/12/03 02:29:55;;;;;;;1.70;1.20;;;1.90;99.90;;;;;;5069616;28;20499;-60
2021/12/03 02:32:23;;;;;;;1.50;1.40;;;1.90;99.90;;;;;;5066983;28;20060;-60
2021/12/03 02:34:54;;;;;;;1.67;1.40;;;1.90;99.90;;;;;;5072341;28;20041;-60
2021/12/03 02:37:21;;;;;;;1.83;1.33;;;1.90;99.90;;;;;;5071212;28;20052;-59
2021/12/03 02:39:49;;;;;;;1.90;1.40;;;1.90;99.90;;;;;;5062467;28;20052;-60
2021/12/03 02:42:17;;;;;;;2.38;1.35;;;1.90;99.90;;;;;;5072659;28;20053;-59
2021/12/03 02:44:45;;;;;;;1.50;1.20;;;1.90;99.90;;;;;;5072638;28;20044;-60
2021/12/03 02:47:13;;;;;;;2.30;1.45;;;1.90;99.90;;;;;;5069719;28;20049;-61
2021/12/03 02:49:42;;;;;;;1.40;1.30;;;1.90;99.90;;;;;;5072618;28;20048;-60
2021/12/03 02:52:10;;;;;;;1.73;1.30;;;1.90;99.90;;;;;;5072057;28;20159;-61
2021/12/03 02:54:38;;;;;;;1.83;1.50;;;2.00;99.90;;;;;;5070567;28;20040;-60
2021/12/03 02:57:09;;;;;;;2.25;1.77;;;1.90;99.90;;;;;;5072780;28;20044;-61
2021/12/03 02:59:37;;;;;;;3.47;2.40;;;2.00;99.90;;;;;;5071425;28;20052;-60
2021/12/03 03:02:05;;;;;;;3.72;2.47;;;2.00;99.90;;;;;;5072046;28;20052;-60
2021/12/03 03:04:51;;;;;;;4.40;3.30;;;2.00;99.90;;;;;;5071094;28;20063;-60
2021/12/03 03:07:20;;;;;;;5.45;3.60;;;2.00;99.90;;;;;;5072021;28;20066;-61
2021/12/03 03:09:48;;;;;;;5.47;3.55;;;2.00;99.90;;;;;;5072248;28;20140;-58
2021/12/03 03:12:16;;;;;;;5.72;3.83;;;2.00;99.90;;;;;;5070781;28;20045;-59
2021/12/03 03:14:53;;;;;;;5.47;3.63;;;2.10;99.90;;;;;;5071765;28;20052;-60
2021/12/03 03:17:25;;;;;;;7.70;4.38;;;2.10;99.90;;;;;;5072433;28;20048;-59
2021/12/03 03:19:55;;;;;;;5.10;3.28;;;2.10;99.90;;;;;;5072170;28;20412;-60
2021/12/03 03:22:23;;;;;;;5.47;3.90;;;2.10;99.90;;;;;;5071858;28;20041;-63
2021/12/03 03:24:52;;;;;;;7.15;4.20;;;2.10;99.90;;;;;;5071863;28;20040;-62
2021/12/03 03:27:21;;;;;;;5.05;4.13;;;2.10;99.90;;;;;;5070617;28;20055;-63
2021/12/03 03:29:51;;;;;;;5.68;3.58;;;2.10;99.90;;;;;;5071913;28;20048;-63
2021/12/03 03:32:19;;;;;;;11.82;5.07;;;2.10;99.90;;;;;;5070096;28;20047;-63
2021/12/03 03:34:47;;;;;;;8.30;5.07;;;2.10;99.90;;;;;;5070493;28;20400;-63
2021/12/03 03:37:16;;;;;;;11.63;4.78;;;2.10;99.90;;;;;;5071715;28;20051;-63
2021/12/03 03:39:44;;;;;;;9.85;5.15;;;2.10;99.90;;;;;;5071391;28;20067;-62
2021/12/03 03:42:12;;;;;;;6.60;4.63;;;2.20;99.90;;;;;;5070046;28;20052;-64
2021/12/03 03:44:40;;;;;;;7.93;5.57;;;2.20;99.90;;;;;;5070373;28;20052;-62
2021/12/03 03:47:08;;;;;;;8.25;5.35;;;2.20;99.90;;;;;;5070522;28;20056;-63
2021/12/03 03:49:36;;;;;;;7.00;4.70;;;2.20;99.90;;;;;;5071683;28;20044;-62
2021/12/03 03:52:05;;;;;;;8.27;5.20;;;2.20;99.90;;;;;;5071021;28;20045;-62
2021/12/03 03:54:33;;;;;;;6.95;5.15;;;2.20;99.90;;;;;;5071584;28;20049;-62
2021/12/03 03:57:02;;;;;;;10.80;4.97;;;2.20;99.90;;;;;;5071704;28;20048;-62
2021/12/03 03:59:30;;;;;;;7.50;4.38;;;2.20;99.90;;;;;;5070252;28;20056;-62
2021/12/03 04:01:58;;;;;;;11.73;4.40;;;2.20;99.90;;;;;;5071755;28;20041;-62
2021/12/03 04:04:26;;;;;;;10.32;5.63;;;2.20;99.90;;;;;;5073920;28;20464;-63
2021/12/03 04:06:54;;;;;;;8.95;6.25;;;2.30;99.90;;;;;;5078178;28;20053;-63
2021/12/03 04:09:21;;;;;;;9.02;5.57;;;2.20;99.90;;;;;;5078030;28;20055;-63
2021/12/03 04:11:49;;;;;;;9.85;5.70;;;2.30;99.90;;;;;;5077679;28;20048;-62
2021/12/03 04:14:17;;;;;;;8.05;5.18;;;2.30;99.90;;;;;;5078063;28;20044;-61
2021/12/03 04:16:45;;;;;;;7.70;5.57;;;2.30;99.90;;;;;;5077620;28;20060;-62
2021/12/03 04:19:13;;;;;;;7.82;5.18;;;2.30;99.90;;;;;;5077982;28;20483;-63
2021/12/03 04:21:41;;;;;;;9.50;6.22;;;2.30;99.90;;;;;;5077992;28;20057;-63
2021/12/03 04:24:08;;;;;;;11.80;6.30;;;2.30;99.90;;;;;;5077813;28;20407;-64
2021/12/03 04:26:36;;;;;;;8.35;5.60;;;2.30;99.90;;;;;;5078043;28;20067;-64
2021/12/03 04:29:07;;;;;;;10.35;6.47;;;2.30;99.90;;;;;;5077964;28;20044;-64
2021/12/03 04:31:35;;;;;;;9.65;6.18;;;2.40;99.90;;;;;;5077793;28;20377;-63
2021/12/03 04:34:03;;;;;;;12.27;7.25;;;2.40;99.90;;;;;;5077726;28;20048;-64
2021/12/03 04:36:31;;;;;;;11.45;7.50;;;2.40;99.90;;;;;;5077773;28;20479;-64
2021/12/03 04:38:59;;;;;;;10.82;6.40;;;2.40;99.90;;;;;;5077325;28;20059;-64
2021/12/03 04:41:26;;;;;;;10.95;5.95;;;2.40;99.90;;;;;;5076482;28;20044;-62
2021/12/03 04:43:54;;;;;;;10.65;6.60;;;2.40;99.90;;;;;;5077407;28;20048;-62
2021/12/03 04:46:22;;;;;;;13.32;7.15;;;2.40;99.90;;;;;;5077895;28;20045;-60
2021/12/03 04:48:50;;;;;;;10.95;7.18;;;2.50;99.90;;;;;;5077871;28;20499;-60
2021/12/03 04:51:18;;;;;;;12.35;7.43;;;2.50;99.90;;;;;;5076343;28;20045;-61
2021/12/03 04:53:45;;;;;;;11.63;7.35;;;2.50;99.90;;;;;;5077822;28;20044;-62
2021/12/03 04:56:14;;;;;;;12.77;8.05;;;2.50;99.90;;;;;;5077793;28;20045;-62
2021/12/03 04:58:41;;;;;;;13.52;7.18;;;2.50;99.90;;;;;;5077361;28;20041;-61
2021/12/03 05:01:10;;;;;;;13.18;7.30;;;2.50;99.90;;;;;;5077574;28;20396;-59
2021/12/03 05:03:38;;;;;;;11.13;7.20;;;2.50;99.90;;;;;;5076271;28;20052;-61
2021/12/03 05:06:14;;;;;;;14.68;7.40;;;2.60;99.90;;;;;;5076147;28;20036;-60
2021/12/03 05:08:42;;;;;;;14.77;7.32;;;2.50;99.90;;;;;;5076230;28;20063;-60
2021/12/03 05:11:10;;;;;;;14.40;7.50;;;2.60;99.90;;;;;;5076069;28;20053;-61
2021/12/03 05:13:38;;;;;;;16.38;7.88;;;2.60;99.90;;;;;;5076158;28;20291;-61
2021/12/03 05:16:06;;;;;;;13.82;7.65;;;2.60;99.90;;;;;;5074959;28;20484;-61
2021/12/03 05:18:34;;;;;;;16.63;8.35;;;2.60;99.90;;;;;;5074144;28;20051;-61
2021/12/03 05:21:04;;;;;;;15.30;9.10;;;2.70;99.90;;;;;;5073140;28;20396;-60
2021/12/03 05:23:32;;;;;;;;;;;2.70;99.90;;;;;;5075131;28;20044;-61
2021/12/03 05:26:00;;;;;;;11.35;7.30;;;2.70;99.90;;;;;;5074068;28;19920;-60
2021/12/03 05:28:29;;;;;;;12.68;7.75;;;2.80;99.90;;;;;;5074184;28;20048;-60
2021/12/03 05:30:58;;;;;;;15.80;8.82;;;2.80;99.90;;;;;;5074050;28;20076;-62
2021/12/03 05:33:25;;;;;;;17.33;8.90;;;2.80;99.90;;;;;;5073936;28;20067;-60
2021/12/03 05:35:54;;;;;;;12.43;7.00;;;2.80;99.90;;;;;;5073945;28;20048;-60
2021/12/03 05:38:21;;;;;;;13.95;7.75;;;2.90;99.90;;;;;;5073556;28;20044;-60
2021/12/03 05:40:50;;;;;;;16.85;8.65;;;2.90;99.90;;;;;;5073946;28;20048;-60
2021/12/03 05:43:18;;;;;;;17.00;8.88;;;2.90;99.90;;;;;;5072444;28;20048;-59
2021/12/03 05:45:46;;;;;;;22.50;8.57;;;3.00;99.90;;;;;;5072388;28;20049;-60
2021/12/03 05:48:14;;;;;;;16.83;8.65;;;3.00;99.90;;;;;;5059325;28;20423;-60
2021/12/03 05:50:43;;;;;;;17.35;8.57;;;3.00;99.90;;;;;;5049961;28;20392;-60
2021/12/03 05:53:10;;;;;;;14.27;8.27;;;3.00;99.90;;;;;;5050098;28;20041;-60
2021/12/03 05:55:38;;;;;;;15.07;9.15;;;3.10;99.90;;;;;;5050297;28;20045;-60
2021/12/03 05:58:06;;;;;;;14.40;9.38;;;3.10;99.90;;;;;;5057600;28;20049;-60
2021/12/03 06:00:40;;;;;;;16.10;9.07;;;3.10;99.90;;;;;;5068688;28;20048;-60
2021/12/03 06:03:08;;;;;;;19.35;8.95;;;3.10;99.90;;;;;;5050910;28;20061;-59
2021/12/03 06:05:36;;;;;;;17.63;8.68;;;3.20;99.90;;;;;;5066237;28;20040;-61
2021/12/03 06:08:04;;;;;;;16.67;9.35;;;3.20;99.90;;;;;;5066739;28;20061;-60
2021/12/03 06:10:32;;;;;;;18.10;9.30;;;3.20;99.90;;;;;;5068321;28;20067;-62
2021/12/03 06:13:00;;;;;;;15.80;8.35;;;3.20;99.90;;;;;;5069547;28;20064;-60
2021/12/03 06:15:28;;;;;;;18.80;9.10;;;3.30;99.90;;;;;;5069771;28;20075;-60
2021/12/03 06:17:57;;;;;;;14.05;8.20;;;3.30;99.90;;;;;;5064390;28;20045;-59
2021/12/03 06:20:25;;;;;;;16.80;8.52;;;3.30;99.90;;;;;;5049639;28;20053;-60
2021/12/03 06:22:53;;;;;;;18.67;9.40;;;3.40;99.90;;;;;;5056910;28;20048;-59
2021/12/03 06:25:21;;;;;;;16.45;9.45;;;3.40;99.90;;;;;;5066592;28;20061;-60
2021/12/03 06:27:49;;;;;;;16.52;8.15;;;3.40;99.90;;;;;;5064533;28;20053;-59
2021/12/03 06:30:19;;;;;;;16.45;8.70;;;3.50;99.90;;;;;;5065436;28;20514;-59
2021/12/03 06:32:47;;;;;;;18.65;9.52;;;3.50;99.90;;;;;;5061874;28;20049;-61
2021/12/03 06:35:16;;;;;;;15.95;8.23;;;3.60;99.90;;;;;;5063061;28;20746;-60
2021/12/03 06:37:44;;;;;;;16.27;8.27;;;3.60;99.90;;;;;;5067351;28;20048;-61
2021/12/03 06:40:19;;;;;;;16.33;7.60;;;3.70;99.90;;;;;;5067819;28;20502;-60
2021/12/03 06:42:47;;;;;;;18.25;8.10;;;3.80;99.90;;;;;;5067329;28;20049;-59
2021/12/03 06:45:16;;;;;;;18.42;8.02;;;3.80;99.90;;;;;;5069169;28;20476;-60
2021/12/03 06:47:43;;;;;;;17.10;7.45;;;3.80;99.90;;;;;;5067778;28;20044;-60
2021/12/03 06:50:18;;;;;;;17.88;8.35;;;3.90;99.90;;;;;;5049001;28;20052;-59
2021/12/03 06:52:52;;;;;;;13.32;7.05;;;3.90;99.90;;;;;;5053760;28;20045;-59
2021/12/03 06:55:21;;;;;;;15.98;7.97;;;4.00;99.90;;;;;;5045366;28;20053;-63
2021/12/03 06:57:49;;;;;;;19.92;7.95;;;4.00;99.90;;;;;;5054527;28;20400;-60
2021/12/03 07:00:17;;;;;;;13.88;8.25;;;4.10;99.90;;;;;;5067084;28;20045;-60
2021/12/03 07:02:45;;;;;;;12.25;7.60;;;4.10;99.90;;;;;;5063951;28;20044;-61
2021/12/03 07:05:14;;;;;;;14.23;7.00;;;4.10;99.90;;;;;;5094682;28;20059;-61
2021/12/03 07:07:42;;;;;;;10.23;5.05;;;4.20;99.90;;;;;;5067322;28;20519;-62
2021/12/03 07:10:10;;;;;;;14.10;7.15;;;4.20;99.90;;;;;;5069372;28;20056;-61
2021/12/03 07:12:37;;;;;;;12.10;6.05;;;4.30;99.90;;;;;;5068310;28;20499;-61
2021/12/03 07:15:06;;;;;;;14.27;7.55;;;4.30;99.90;;;;;;5067681;28;20051;-60
2021/12/03 07:17:34;;;;;;;13.30;7.47;;;4.30;99.90;;;;;;5067261;28;20055;-60
2021/12/03 07:20:07;;;;;;;13.70;7.47;;;4.40;99.90;;;;;;5066901;28;20052;-62
2021/12/03 07:22:35;;;;;;;13.45;7.18;;;4.40;99.90;;;;;;5067466;28;20052;-64
2021/12/03 07:25:05;;;;;;;17.98;8.20;;;4.40;99.90;;;;;;5068629;28;20043;-63
2021/12/03 07:27:35;;;;;;;15.02;7.85;;;4.40;99.90;;;;;;5054230;28;20056;-64
2021/12/03 07:30:05;;;;;;;13.95;7.78;;;4.50;99.90;;;;;;5067264;28;20051;-61
2021/12/03 07:32:33;;;;;;;14.27;8.00;;;4.50;99.90;;;;;;5043564;28;20183;-60
2021/12/03 07:35:02;;;;;;;12.98;7.50;;;4.40;99.90;;;;;;5060417;28;20300;-60
2021/12/03 07:37:30;;;;;;;15.55;7.72;;;4.40;99.90;;;;;;5066331;28;20040;-60
2021/12/03 07:40:08;;;;;;;15.25;7.07;;;4.40;99.90;;;;;;5067939;28;20045;-61
2021/12/03 07:42:36;;;;;;;16.15;7.72;;;4.40;99.90;;;;;;5068140;28;20052;-62
2021/12/03 07:45:08;;;;;;;15.88;6.53;;;4.40;99.90;;;;;;5068010;28;20492;-61
2021/12/03 07:47:46;;;;;;;13.38;7.25;;;4.50;99.90;;;;;;5052940;28;20190;-63
2021/12/03 07:50:15;;;;;;;14.55;6.78;;;4.50;99.90;;;;;;5034868;28;20075;-62
2021/12/03 07:52:43;;;;;;;16.92;7.53;;;4.50;99.90;;;;;;5066510;28;20138;-59
2021/12/03 07:55:11;;;;;;;13.18;6.40;;;4.60;99.90;;;;;;5066452;28;20476;-62
2021/12/03 07:57:39;;;;;;;14.73;6.72;;;4.60;99.90;;;;;;5066255;28;20408;-61
2021/12/03 08:00:08;;;;;;;13.32;6.78;;;4.70;99.90;;;;;;5067906;28;20040;-61
2021/12/03 08:02:39;;;;;;;14.68;6.07;;;4.80;99.90;;;;;;5054268;28;20045;-62
2021/12/03 08:05:07;;;;;;;10.45;5.40;;;4.90;99.90;;;;;;5062014;28;20060;-62
2021/12/03 08:07:35;;;;;;;15.60;6.10;;;5.00;99.90;;;;;;5066106;28;20040;-61
2021/12/03 08:10:04;;;;;;;10.60;5.32;;;5.00;99.90;;;;;;5067876;28;20060;-62
2021/12/03 08:12:32;;;;;;;14.43;5.78;;;5.10;99.90;;;;;;5067775;28;20055;-61
2021/12/03 08:15:00;;;;;;;11.63;5.82;;;5.20;99.90;;;;;;5067376;28;20037;-63
2021/12/03 08:17:27;;;;;;;14.50;5.10;;;5.30;99.90;;;;;;5064048;28;20537;-62
2021/12/03 08:19:56;;;;;;;12.13;5.78;;;5.30;99.90;;;;;;5052281;28;20323;-62
2021/12/03 08:22:24;;;;;;;11.52;5.68;;;5.40;99.90;;;;;;5050860;28;20122;-61
2021/12/03 08:24:52;;;;;;;13.65;5.53;;;5.50;99.90;;;;;;5065958;28;20415;-61
2021/12/03 08:27:20;;;;;;;11.52;4.97;;;5.50;99.90;;;;;;5065391;28;20060;-61
2021/12/03 08:29:48;;;;;;;16.30;5.80;;;5.50;99.90;;;;;;5062925;28;20508;-61
2021/12/03 08:32:15;;;;;;;18.15;6.00;;;5.60;99.90;;;;;;5058326;28;20052;-61
2021/12/03 08:34:43;;;;;;;18.25;6.95;;;5.50;99.90;;;;;;5066924;28;20044;-61
2021/12/03 08:37:11;;;;;;;13.48;5.35;;;5.60;99.90;;;;;;5049229;28;20052;-61
2021/12/03 08:39:39;;;;;;;12.85;5.05;;;5.60;99.90;;;;;;5066264;28;20052;-62
2021/12/03 08:42:09;;;;;;;10.95;5.15;;;5.60;99.90;;;;;;5067524;28;21582;-61
2021/12/03 08:44:38;;;;;;;11.85;4.72;;;5.60;99.90;;;;;;5067277;28;20048;-61
2021/12/03 08:47:07;;;;;;;9.90;4.40;;;5.70;99.90;;;;;;5067133;28;20052;-61
2021/12/03 08:49:38;;;;;;;13.45;5.13;;;5.70;99.90;;;;;;5067429;28;20048;-60
2021/12/03 08:55:08;;;;;;;13.75;5.00;;;5.80;99.90;;;;;;5071466;28;20484;-62
2021/12/03 08:57:36;;;;;;;28.10;11.60;;;5.80;99.90;;;;;;5071196;28;20353;-61
2021/12/03 09:00:12;;;;;;;23.00;8.80;;;5.90;99.90;;;;;;5071652;28;20071;-62
2021/12/03 09:02:41;;;;;;;18.55;7.05;;;6.00;99.90;;;;;;5071092;28;20162;-61
2021/12/03 09:05:10;;;;;;;17.53;8.80;;;6.10;99.90;;;;;;5070413;28;20047;-63
2021/12/03 09:07:38;;;;;;;25.63;10.93;;;6.10;99.90;;;;;;5055570;28;20324;-62
2021/12/03 09:10:15;;;;;;;29.60;14.00;;;6.20;99.90;;;;;;5068899;28;20044;-61
2021/12/03 09:12:43;;;;;;;11.27;5.80;;;6.20;99.90;;;;;;5067589;28;20416;-60
2021/12/03 09:15:14;;;;;;;10.35;5.43;;;6.30;99.90;;;;;;5067783;28;20040;-61
2021/12/03 09:22:55;;;;;;;47.30;25.30;;;6.30;99.90;;;;;;5068224;28;20052;-62
2021/12/03 09:25:34;;;;;;;44.47;24.08;;;6.30;99.90;;;;;;5069525;28;20059;-60
2021/12/03 09:28:05;;;;;;;23.17;11.18;;;6.30;99.90;;;;;;5054111;28;20047;-59
2021/12/03 09:30:36;;;;;;;19.83;7.20;;;6.30;99.90;;;;;;5067369;28;20502;-58
2021/12/03 09:33:07;;;;;;;15.70;8.15;;;6.40;99.90;;;;;;5066798;28;20039;-60
2021/12/03 09:35:44;;;;;;;14.73;5.72;;;6.40;99.90;;;;;;5063714;28;20055;-59
2021/12/03 09:38:12;;;;;;;20.60;6.35;;;6.40;99.90;;;;;;5059472;28;20041;-61
2021/12/03 09:40:42;;;;;;;15.13;6.45;;;6.40;99.90;;;;;;5069923;28;20044;-60
2021/12/03 09:43:09;;;;;;;23.65;7.05;;;6.50;99.90;;;;;;5068873;28;20590;-60
2021/12/03 09:45:39;;;;;;;34.67;14.82;;;6.50;99.90;;;;;;5068871;28;20059;-60
2021/12/03 09:48:34;;;;;;;40.10;16.30;;;6.60;99.90;;;;;;5065713;28;20127;-60
2021/12/03 09:51:03;;;;;;;14.80;5.10;;;6.60;99.90;;;;;;5062162;28;20046;-60
2021/12/03 09:56:04;;;;;;;14.50;5.07;;;6.70;99.90;;;;;;5070090;28;20476;-60
2021/12/03 10:01:18;;;;;;;10.10;3.90;;;6.70;99.90;;;;;;5070147;28;20052;-58
2021/12/03 10:14:56;;;;;;;15.80;3.92;;;6.90;99.90;;;;;;5027473;28;20049;-61
2021/12/03 10:23:26;;;;;;;19.08;4.03;;;7.00;99.90;;;;;;5057734;28;20515;-61
2021/12/03 10:50:58;;;;;;;13.77;3.33;;;7.30;99.90;;;;;;5060182;28;20523;-59
2021/12/03 10:53:34;;;;;;;17.75;3.63;;;7.30;99.90;;;;;;5061761;28;20056;-58
2021/12/03 11:02:47;;;;;;;11.68;3.45;;;7.40;99.90;;;;;;4990344;28;20069;-58
2021/12/03 11:16:45;;;;;;;12.73;4.00;;;7.60;99.90;;;;;;5067482;28;20056;-61
2021/12/03 12:22:28;;;;;;;14.52;2.40;;;7.80;99.90;;;;;;5066801;28;20063;-63
2021/12/03 13:25:19;;;;;;;18.58;3.47;;;7.60;99.90;;;;;;5050664;28;20118;-59
2021/12/03 13:46:28;;;;;;;23.15;4.25;;;7.70;99.90;;;;;;5051056;28;20408;-59
2021/12/03 14:19:11;;;;;;;27.02;5.70;;;7.50;99.90;;;;;;5066187;28;20067;-59
2021/12/03 14:36:10;;;;;;;14.93;3.38;;;7.50;99.90;;;;;;5066179;28;20048;-59
2021/12/03 14:41:58;;;;;;;9.65;2.00;;;7.40;99.90;;;;;;5046290;28;20049;-59
2021/12/03 14:43:50;;;;;;;10.35;2.08;;;7.40;99.90;;;;;;5059033;28;20052;-58
2021/12/03 14:49:12;;;;;;;19.15;3.67;;;7.40;99.90;;;;;;5057966;28;20045;-58
2021/12/03 14:51:55;;;;;;;24.48;3.83;;;7.40;99.90;;;;;;5082000;28;20040;-60
2021/12/03 15:08:27;;;;;;;13.85;2.95;;;7.20;99.90;;;;;;5059181;28;20049;-59
2021/12/03 15:35:13;;;;;;;13.50;3.15;;;7.00;99.90;;;;;;5068101;28;20045;-57
2021/12/03 15:40:22;;;;;;;22.33;3.70;;;7.00;99.90;;;;;;5054046;28;20049;-59
2021/12/03 15:58:06;;;;;;;21.45;5.72;;;6.80;99.90;;;;;;5040610;28;20056;-59
2021/12/03 16:19:01;;;;;;;15.52;3.47;;;6.60;99.90;;;;;;5067108;28;20045;-59
2021/12/03 16:43:48;;;;;;;29.00;18.25;;;6.60;99.90;;;;;;5071676;28;20048;-59
2021/12/03 16:51:53;;;;;;;22.05;7.72;;;6.60;99.90;;;;;;5051710;28;20386;-59
2021/12/03 16:54:44;;;;;;;21.42;6.68;;;6.50;99.90;;;;;;5062281;28;20439;-59
2021/12/03 16:57:13;;;;;;;27.25;8.68;;;6.50;99.90;;;;;;5063232;28;20053;-64
2021/12/03 16:59:43;;;;;;;37.33;8.30;;;6.50;99.90;;;;;;5066745;28;20040;-60
2021/12/03 17:02:19;;;;;;;25.17;7.32;;;6.50;99.90;;;;;;5063252;28;20032;-66
2021/12/03 17:15:32;;;;;;;25.35;7.53;;;6.30;99.90;;;;;;5071642;28;20052;-62
2021/12/03 17:29:39;;;;;;;31.33;10.18;;;6.20;99.90;;;;;;5066158;28;20376;-61
2021/12/03 17:46:13;;;;;;;17.35;4.32;;;6.30;99.90;;;;;;5073199;28;20044;-65
2021/12/03 17:56:35;;;;;;;11.13;3.95;;;6.30;99.90;;;;;;5065041;28;20319;-60
2021/12/03 17:59:29;;;;;;;14.38;3.80;;;6.30;99.90;;;;;;5054877;28;20048;-60
2021/12/03 18:15:27;;;;;;;12.60;4.88;;;6.20;99.90;;;;;;5080345;28;20052;-59
2021/12/03 18:55:41;;;;;;;30.80;11.38;;;5.60;99.90;;;;;;5065007;28;20047;-59
2021/12/03 18:58:09;;;;;;;27.95;9.88;;;5.60;99.90;;;;;;5065266;28;20826;-59
2021/12/03 19:00:42;;;;;;;27.92;10.32;;;5.60;99.90;;;;;;5064995;28;20052;-59
2021/12/03 19:08:50;;;;;;;30.48;9.35;;;5.60;99.90;;;;;;5073679;28;20063;-58
2021/12/03 19:13:57;;;;;;;21.05;7.60;;;5.50;99.90;;;;;;5070601;28;20048;-58
2021/12/03 19:16:26;;;;;;;32.03;10.05;;;5.50;99.90;;;;;;5063527;28;20056;-58
2021/12/03 19:18:57;;;;;;;39.67;10.95;;;5.50;99.90;;;;;;5076446;28;20542;-59
2021/12/03 19:21:28;;;;;;;29.77;10.15;;;5.50;99.90;;;;;;5065628;28;20385;-58
2021/12/03 19:23:58;;;;;;;24.42;8.65;;;5.50;99.90;;;;;;5072935;28;20044;-60
2021/12/03 19:26:27;;;;;;;20.63;8.55;;;5.50;99.90;;;;;;5054318;28;20060;-59
2021/12/03 19:28:56;;;;;;;32.53;10.32;;;5.50;99.90;;;;;;5064739;28;20044;-58
2021/12/03 19:31:24;;;;;;;29.20;10.07;;;5.40;99.90;;;;;;5064592;28;20040;-58
2021/12/03 19:33:52;;;;;;;24.00;8.85;;;5.40;99.90;;;;;;5078486;28;20299;-59
2021/12/03 19:36:23;;;;;;;29.80;9.88;;;5.40;99.90;;;;;;5066274;28;20059;-58
2021/12/03 19:38:59;;;;;;;25.25;9.65;;;5.40;99.90;;;;;;5070344;28;20040;-59
2021/12/03 19:41:33;;;;;;;;;;;5.40;99.90;;;;;;5065112;28;20487;-58
2021/12/03 19:44:03;;;;;;;28.50;10.02;;;5.40;99.90;;;;;;5078820;28;20264;-60
2021/12/03 19:46:34;;;;;;;33.20;10.60;;;5.40;99.90;;;;;;5064812;28;20055;-58
2021/12/03 19:51:52;;;;;;;31.13;11.60;;;5.40;99.90;;;;;;5063724;28;20048;-60
2021/12/03 19:54:22;;;;;;;30.85;11.32;;;5.30;99.90;;;;;;5069763;28;20048;-59
2021/12/03 19:56:54;;;;;;;35.15;12.65;;;5.30;99.90;;;;;;5064369;28;20051;-59
2021/12/03 19:59:22;;;;;;;35.15;13.93;;;5.30;99.90;;;;;;5065266;28;20059;-59
2021/12/03 20:01:50;;;;;;;33.67;14.45;;;5.30;99.90;;;;;;5063428;28;20044;-59
2021/12/03 20:04:18;;;;;;;38.25;11.15;;;5.30;99.90;;;;;;5078587;28;20063;-60
2021/12/03 20:06:46;;;;;;;30.42;11.27;;;5.20;99.90;;;;;;5063594;28;20056;-59
2021/12/03 20:09:22;;;;;;;32.95;11.40;;;5.20;99.90;;;;;;5070267;28;20211;-58
2021/12/03 20:11:56;;;;;;;38.33;12.85;;;5.20;99.90;;;;;;5064423;28;20049;-59
2021/12/03 20:14:24;;;;;;;96.25;28.77;;;5.20;99.90;;;;;;5079514;28;20052;-60
2021/12/03 20:22:08;;;;;;;50.45;19.63;;;5.20;99.90;;;;;;5064239;28;20783;-60
2021/12/03 20:27:21;;;;;;;39.55;16.42;;;5.20;99.90;;;;;;5063373;28;20052;-60
2021/12/03 20:29:53;;;;;;;55.90;19.75;;;5.30;99.90;;;;;;5064124;28;20040;-67
2021/12/03 20:35:26;;;;;;;51.70;17.40;;;5.30;99.90;;;;;;5069725;28;20425;-61
2021/12/03 20:37:50;;;;;;;42.03;14.98;;;5.30;99.90;;;;;;5048926;28;20048;-61
2021/12/03 20:40:25;;;;;;;40.90;16.97;;;5.20;99.90;;;;;;5046450;28;20049;-61
2021/12/03 21:10:01;;;;;;;35.78;14.60;;;5.20;99.90;;;;;;5039900;28;20044;-60
2021/12/03 21:12:50;;;;;;;41.50;15.85;;;5.20;99.90;;;;;;5068314;28;20047;-60
2021/12/03 21:18:40;;;;;;;44.35;16.83;;;5.20;99.90;;;;;;5067896;28;20384;-61
2021/12/03 21:21:12;;;;;;;39.10;16.02;;;5.20;99.90;;;;;;5065674;28;20527;-61
2021/12/03 21:23:44;;;;;;;34.92;13.95;;;5.20;99.90;;;;;;5067946;28;20333;-60
2021/12/03 21:26:21;;;;;;;39.97;14.63;;;5.20;99.90;;;;;;5067018;28;20044;-60
2021/12/03 21:39:25;;;;;;;40.28;15.90;;;5.10;99.90;;;;;;5067773;28;20041;-60
2021/12/03 21:41:52;;;;;;;38.38;14.82;;;5.00;99.90;;;;;;5065775;28;20060;-59
2021/12/03 21:44:22;;;;;;;32.38;15.18;;;5.00;99.90;;;;;;5081754;28;20472;-59
2021/12/03 21:46:50;;;;;;;38.22;14.55;;;5.00;99.90;;;;;;5058759;28;20057;-60
2021/12/03 21:49:18;;;;;;;36.30;15.40;;;5.00;99.90;;;;;;5072834;28;20048;-59
2021/12/03 21:51:46;;;;;;;29.15;13.75;;;5.00;99.90;;;;;;5066482;28;20134;-60